createdAt,value
2023-04-03T00:00:40.775Z,100.00
2023-04-03T00:03:44.187Z,100.00
2023-04-03T00:06:45.779Z,100.00
2023-04-03T00:09:47.378Z,100.00
2023-04-03T00:12:49.638Z,100.00
2023-04-03T00:15:53.027Z,100.00
2023-04-03T00:18:54.591Z,100.00
2023-04-03T00:21:56.259Z,100.00
2023-04-03T00:24:58.059Z,100.00
2023-04-03T00:27:59.657Z,100.00
2023-04-03T00:31:03.189Z,100.00
2023-04-03T00:34:04.861Z,100.00
2023-04-03T00:37:06.834Z,100.00
2023-04-03T00:40:09.104Z,100.00
2023-04-03T00:43:12.722Z,100.00
2023-04-03T00:46:15.675Z,100.00
2023-04-03T00:49:17.593Z,100.00
2023-04-03T00:52:23.263Z,100.00
2023-04-03T00:55:25.319Z,100.00
2023-04-03T00:58:30.204Z,100.00
2023-04-03T01:01:33.411Z,100.00
2023-04-03T01:04:36.653Z,100.00
2023-04-03T01:07:40.244Z,100.00
2023-04-03T01:10:42.203Z,100.00
2023-04-03T01:13:44.183Z,100.00
2023-04-03T01:16:53.677Z,100.00
2023-04-03T01:20:03.841Z,100.00
2023-04-03T01:23:11.775Z,100.00
2023-04-03T01:26:16.390Z,100.00
2023-04-03T01:29:18.097Z,100.00
2023-04-03T01:32:21.351Z,100.00
2023-04-03T01:35:27.298Z,100.00
2023-04-03T01:38:29.181Z,100.00
2023-04-03T01:41:31.606Z,100.00
2023-04-03T01:44:33.182Z,100.00
2023-04-03T01:47:36.993Z,100.00
2023-04-03T01:50:38.812Z,100.00
2023-04-03T01:53:40.618Z,100.00
2023-04-03T01:56:42.350Z,100.00
2023-04-03T01:59:43.921Z,100.00
2023-04-03T02:02:48.676Z,100.00
2023-04-03T02:05:50.659Z,100.00
2023-04-03T02:08:52.478Z,100.00
2023-04-03T02:11:54.261Z,100.00
2023-04-03T02:14:55.957Z,100.00
2023-04-03T02:17:58.926Z,100.00
2023-04-03T02:21:00.887Z,100.00
2023-04-03T02:24:02.471Z,100.00
2023-04-03T02:27:04.038Z,100.00
2023-04-03T02:30:07.857Z,100.00
2023-04-03T02:33:10.887Z,100.00
2023-04-03T02:36:12.724Z,100.00
2023-04-03T02:39:15.061Z,100.00
2023-04-03T02:42:16.909Z,100.00
2023-04-03T02:45:18.672Z,100.00
2023-04-03T02:48:21.807Z,100.00
2023-04-03T02:51:23.386Z,100.00
2023-04-03T02:54:25.148Z,100.00
2023-04-03T02:57:26.738Z,100.00
2023-04-03T03:00:28.362Z,100.00
2023-04-03T03:03:31.349Z,100.00
2023-04-03T03:06:35.426Z,100.00
2023-04-03T03:09:37.228Z,100.00
2023-04-03T03:12:38.881Z,100.00
2023-04-03T03:15:40.431Z,100.00
2023-04-03T03:18:44.843Z,100.00
2023-04-03T03:21:46.419Z,100.00
2023-04-03T03:24:48.166Z,100.00
2023-04-03T03:27:50.033Z,100.00
2023-04-03T03:30:53.975Z,100.00
2023-04-03T03:33:58.263Z,100.00
2023-04-03T03:37:00.055Z,100.00
2023-04-03T03:40:01.653Z,100.00
2023-04-03T03:43:03.729Z,100.00
2023-04-03T03:46:05.357Z,100.00
2023-04-03T03:49:09.470Z,100.00
2023-04-03T03:52:14.903Z,100.00
2023-04-03T03:55:16.624Z,100.00
2023-04-03T03:58:18.244Z,100.00
2023-04-03T04:01:20.099Z,100.00
2023-04-03T04:04:23.128Z,100.00
2023-04-03T04:07:24.826Z,100.00
2023-04-03T04:10:26.507Z,100.00
2023-04-03T04:13:28.051Z,100.00
2023-04-03T04:16:29.987Z,100.00
2023-04-03T04:19:33.122Z,100.00
2023-04-03T04:22:34.700Z,100.00
2023-04-03T04:25:36.496Z,100.00
2023-04-03T04:28:38.479Z,100.00
2023-04-03T04:31:42.856Z,100.00
2023-04-03T04:34:45.916Z,100.00
2023-04-03T04:37:47.457Z,100.00
2023-04-03T04:40:49.443Z,100.00
2023-04-03T04:43:51.485Z,100.00
2023-04-03T04:46:53.101Z,100.00
2023-04-03T04:49:56.082Z,100.00
2023-04-03T04:52:57.853Z,100.00
2023-04-03T04:55:59.416Z,100.00
2023-04-03T04:59:01.055Z,100.00
2023-04-03T05:02:02.692Z,100.00
2023-04-03T05:05:05.986Z,100.00
2023-04-03T05:08:08.857Z,100.00
2023-04-03T05:11:10.465Z,100.00
2023-04-03T05:14:11.995Z,100.00
2023-04-03T05:17:14.234Z,100.00
2023-04-03T05:20:17.330Z,100.00
2023-04-03T05:23:19.501Z,100.00
2023-04-03T05:26:21.243Z,100.00
2023-04-03T05:29:23.082Z,100.00
2023-04-03T05:32:25.238Z,100.00
2023-04-03T05:35:28.306Z,100.00
2023-04-03T05:38:29.982Z,100.00
2023-04-03T05:41:31.751Z,100.00
2023-04-03T05:44:35.456Z,100.00
2023-04-03T05:47:37.041Z,100.00
2023-04-03T05:50:40.036Z,100.00
2023-04-03T05:53:42.450Z,100.00
2023-04-03T05:56:44.392Z,100.00
2023-04-03T05:59:46.891Z,100.00
2023-04-03T06:02:48.576Z,100.00
2023-04-03T06:05:53.898Z,100.00
2023-04-03T06:08:55.466Z,100.00
2023-04-03T06:11:57.518Z,100.00
2023-04-03T06:14:59.122Z,100.00
2023-04-03T06:18:01.953Z,100.00
2023-04-03T06:21:05.470Z,100.00
2023-04-03T06:24:07.706Z,100.00
2023-04-03T06:27:11.842Z,100.00
2023-04-03T06:30:14.174Z,100.00
2023-04-03T06:33:16.373Z,100.00
2023-04-03T06:36:19.950Z,100.00
2023-04-03T06:39:22.447Z,100.00
2023-04-03T06:42:24.374Z,100.00
2023-04-03T06:45:26.302Z,100.00
2023-04-03T06:48:28.468Z,100.00
2023-04-03T06:51:31.691Z,100.00
2023-04-03T06:54:33.766Z,100.00
2023-04-03T06:57:35.330Z,100.00
2023-04-03T07:00:36.892Z,100.00
2023-04-03T07:03:39.069Z,100.00
2023-04-03T07:06:42.060Z,100.00
2023-04-03T07:09:45.126Z,100.00
2023-04-03T07:12:48.494Z,100.00
2023-04-03T07:15:50.213Z,100.00
2023-04-03T07:18:51.919Z,100.00
2023-04-03T07:21:55.236Z,100.00
2023-04-03T07:24:56.811Z,100.00
2023-04-03T07:27:58.954Z,100.00
2023-04-03T07:31:01.307Z,100.00
2023-04-03T07:34:03.085Z,100.00
2023-04-03T07:37:06.302Z,100.00
2023-04-03T07:40:09.470Z,100.00
2023-04-03T07:43:11.233Z,100.00
2023-04-03T07:46:13.249Z,100.00
2023-04-03T07:49:15.353Z,100.00
2023-04-03T07:52:18.555Z,100.00
2023-04-03T07:55:20.190Z,100.00
2023-04-03T07:58:22.194Z,100.00
2023-04-03T08:01:23.841Z,100.00
2023-04-03T08:04:25.561Z,100.00
2023-04-03T08:07:29.636Z,100.00
2023-04-03T08:10:31.437Z,100.00
2023-04-03T08:13:33.641Z,100.00
2023-04-03T08:16:35.206Z,100.00
2023-04-03T08:19:37.082Z,100.00
2023-04-03T08:22:40.330Z,100.00
2023-04-03T08:25:42.878Z,100.00
2023-04-03T08:28:45.014Z,100.00
2023-04-03T08:31:46.725Z,100.00
2023-04-03T08:34:48.495Z,100.00
2023-04-03T08:37:52.738Z,100.00
2023-04-03T08:41:00.981Z,100.00
2023-04-03T08:44:16.209Z,100.00
2023-04-03T08:47:24.203Z,100.00
2023-04-03T08:50:29.276Z,100.00
2023-04-03T08:53:35.190Z,100.00
2023-04-03T08:56:37.151Z,100.00
2023-04-03T08:59:39.460Z,100.00
2023-04-03T09:02:44.307Z,100.00
2023-04-03T09:05:48.247Z,100.00
2023-04-03T09:08:54.717Z,100.00
2023-04-03T09:11:59.894Z,100.00
2023-04-03T09:15:03.728Z,100.00
2023-04-03T09:18:07.333Z,100.00
2023-04-03T09:21:14.680Z,100.00
2023-04-03T09:24:19.048Z,100.00
2023-04-03T09:27:21.037Z,100.00
2023-04-03T09:30:23.901Z,100.00
2023-04-03T09:33:25.536Z,100.00
2023-04-03T09:36:43.317Z,100.00
2023-04-03T09:39:53.262Z,100.00
2023-04-03T09:43:01.372Z,100.00
2023-04-03T09:46:22.449Z,100.00
2023-04-03T09:49:24.140Z,100.00
2023-04-03T09:52:27.202Z,100.00
2023-04-03T09:55:30.559Z,100.00
2023-04-03T09:58:46.819Z,100.00
2023-04-03T10:02:00.995Z,100.00
2023-04-03T10:08:11.553Z,100.00
2023-04-03T10:11:16.253Z,100.00
2023-04-03T10:14:18.308Z,100.00
2023-04-03T10:17:25.692Z,100.00
2023-04-03T10:20:30.869Z,100.00
2023-04-03T10:23:34.737Z,100.00
2023-04-03T10:26:40.475Z,100.00
2023-04-03T10:29:46.846Z,100.00
2023-04-03T10:32:56.029Z,100.00
2023-04-03T10:36:03.517Z,100.00
2023-04-03T10:39:12.169Z,100.00
2023-04-03T10:42:19.382Z,100.00
2023-04-03T10:45:25.239Z,100.00
2023-04-03T10:48:44.635Z,100.00
2023-04-03T10:51:49.842Z,100.00
2023-04-03T10:54:57.970Z,100.00
2023-04-03T10:58:02.388Z,100.00
2023-04-03T11:01:07.637Z,100.00
2023-04-03T11:04:11.100Z,100.00
2023-04-03T11:07:18.355Z,100.00
2023-04-03T11:10:23.516Z,100.00
2023-04-03T11:13:29.092Z,100.00
2023-04-03T11:16:40.393Z,100.00
2023-04-03T11:19:48.650Z,100.00
2023-04-03T11:22:52.760Z,100.00
2023-04-03T11:25:56.791Z,100.00
2023-04-03T11:29:02.145Z,100.00
2023-04-03T11:32:10.249Z,100.00
2023-04-03T11:35:12.293Z,100.00
2023-04-03T11:38:18.509Z,100.00
2023-04-03T11:41:25.803Z,100.00
2023-04-03T11:44:33.471Z,100.00
2023-04-03T11:47:50.228Z,100.00
2023-04-03T11:50:52.522Z,100.00
2023-04-03T11:53:54.362Z,100.00
2023-04-03T11:56:56.292Z,97.26
2023-04-03T11:59:59.300Z,95.33
2023-04-03T12:03:01.555Z,100.00
2023-04-03T12:06:18.224Z,100.00
2023-04-03T12:09:27.740Z,100.00
2023-04-03T12:12:31.170Z,100.00
2023-04-03T12:15:50.592Z,100.00
2023-04-03T12:19:04.729Z,100.00
2023-04-03T12:22:09.367Z,100.00
2023-04-03T12:25:25.936Z,100.00
2023-04-03T12:28:27.953Z,100.00
2023-04-03T12:31:38.365Z,100.00
2023-04-03T12:34:54.173Z,100.00
2023-04-03T12:38:11.457Z,100.00
2023-04-03T12:41:19.201Z,100.00
2023-04-03T12:44:28.368Z,100.00
2023-04-03T12:47:32.777Z,100.00
2023-04-03T12:50:38.174Z,100.00
2023-04-03T12:53:39.880Z,100.00
2023-04-03T12:56:41.581Z,96.48
2023-04-03T12:59:43.513Z,89.74
2023-04-03T13:02:45.787Z,86.77
2023-04-03T13:05:48.819Z,82.76
2023-04-03T13:08:51.647Z,75.61
2023-04-03T13:11:56.560Z,77.26
2023-04-03T13:14:59.559Z,85.65
2023-04-03T13:18:01.346Z,83.76
2023-04-03T13:21:07.492Z,85.41
2023-04-03T13:24:15.806Z,84.89
2023-04-03T13:27:18.220Z,86.25
2023-04-03T13:30:25.679Z,87.33
2023-04-03T13:33:29.346Z,80.08
2023-04-03T13:36:34.581Z,82.51
2023-04-03T13:39:36.985Z,82.17
2023-04-03T13:42:41.452Z,80.22
2023-04-03T13:45:55.051Z,83.32
2023-04-03T13:48:57.989Z,81.70
2023-04-03T13:52:07.216Z,79.07
2023-04-03T13:55:24.727Z,79.63
2023-04-03T13:58:29.216Z,80.30
2023-04-03T14:01:35.901Z,79.61
2023-04-03T14:04:47.287Z,76.56
2023-04-03T14:07:51.648Z,78.78
2023-04-03T14:10:53.700Z,79.74
2023-04-03T14:14:04.182Z,81.64
2023-04-03T14:17:24.437Z,81.93
2023-04-03T14:20:28.231Z,78.03
2023-04-03T14:23:33.255Z,79.83
2023-04-03T14:26:35.230Z,79.88
2023-04-03T14:29:37.212Z,80.18
2023-04-03T14:32:38.950Z,80.35
2023-04-03T14:35:40.572Z,78.58
2023-04-03T14:38:44.083Z,73.18
2023-04-03T14:41:46.354Z,70.91
2023-04-03T14:44:48.223Z,69.82
2023-04-03T14:47:51.755Z,69.99
2023-04-03T14:51:05.126Z,70.12
2023-04-03T14:54:13.828Z,69.50
2023-04-03T14:57:16.496Z,75.83
2023-04-03T15:00:19.432Z,79.85
2023-04-03T15:03:22.241Z,74.83
2023-04-03T15:06:24.378Z,74.45
2023-04-03T15:09:28.588Z,76.77
2023-04-03T15:12:30.173Z,74.64
2023-04-03T15:15:32.001Z,74.13
2023-04-03T15:18:36.926Z,69.22
2023-04-03T15:21:38.554Z,68.71
2023-04-03T15:24:41.557Z,72.30
2023-04-03T15:27:43.427Z,69.72
2023-04-03T15:30:45.118Z,66.62
2023-04-03T15:33:46.640Z,66.32
2023-04-03T15:36:48.536Z,68.29
2023-04-03T15:39:51.869Z,70.11
2023-04-03T15:42:54.470Z,69.66
2023-04-03T15:45:57.555Z,64.06
2023-04-03T15:48:59.191Z,64.23
2023-04-03T15:52:00.768Z,64.24
2023-04-03T15:55:04.138Z,61.73
2023-04-03T15:58:06.336Z,63.06
2023-04-03T16:01:10.132Z,62.99
2023-04-03T16:04:12.092Z,66.29
2023-04-03T16:07:14.417Z,62.05
2023-04-03T16:10:18.276Z,64.91
2023-04-03T16:13:22.394Z,64.85
2023-04-03T16:16:24.536Z,66.68
2023-04-03T16:19:26.515Z,69.84
2023-04-03T16:22:28.864Z,65.54
2023-04-03T16:25:31.863Z,69.27
2023-04-03T16:28:34.537Z,66.73
2023-04-03T16:31:36.153Z,68.02
2023-04-03T16:34:37.760Z,68.84
2023-04-03T16:37:40.669Z,69.73
2023-04-03T16:40:43.757Z,65.29
2023-04-03T16:43:45.636Z,66.39
2023-04-03T16:46:48.287Z,70.90
2023-04-03T16:49:50.447Z,65.85
2023-04-03T16:52:53.072Z,68.92
2023-04-03T16:55:58.013Z,67.28
2023-04-03T16:58:59.628Z,66.95
2023-04-03T17:02:01.169Z,68.94
2023-04-03T17:05:02.794Z,66.62
2023-04-03T17:08:04.406Z,67.00
2023-04-03T17:11:07.396Z,68.59
2023-04-03T17:14:09.047Z,69.84
2023-04-03T17:17:10.836Z,69.88
2023-04-03T17:20:13.126Z,69.84
2023-04-03T17:23:15.184Z,71.65
2023-04-03T17:26:18.556Z,70.30
2023-04-03T17:29:20.806Z,67.46
2023-04-03T17:32:23.238Z,70.94
2023-04-03T17:35:25.022Z,67.18
2023-04-03T17:38:26.847Z,68.49
2023-04-03T17:41:29.811Z,69.01
2023-04-03T17:44:42.669Z,71.93
2023-04-03T17:47:44.851Z,72.40
2023-04-03T17:50:46.910Z,70.68
2023-04-03T17:53:49.304Z,71.18
2023-04-03T17:56:53.126Z,72.08
2023-04-03T17:59:55.318Z,70.60
2023-04-03T18:02:57.112Z,71.99
2023-04-03T18:06:03.295Z,71.99
2023-04-03T18:09:08.397Z,71.92
2023-04-03T18:12:13.702Z,72.00
2023-04-03T18:15:17.072Z,74.15
2023-04-03T18:18:19.114Z,73.82
2023-04-03T18:21:21.022Z,73.77
2023-04-03T18:24:23.666Z,71.21
2023-04-03T18:27:27.656Z,73.33
2023-04-03T18:30:29.739Z,74.77
2023-04-03T18:33:32.850Z,73.46
2023-04-03T18:36:37.472Z,75.30
2023-04-03T18:39:39.780Z,74.17
2023-04-03T18:42:43.777Z,75.69
2023-04-03T18:45:48.015Z,74.05
2023-04-03T18:48:50.664Z,75.32
2023-04-03T18:51:53.600Z,76.25
2023-04-03T18:54:55.880Z,75.75
2023-04-03T18:58:00.898Z,77.51
2023-04-03T19:01:03.328Z,76.07
2023-04-03T19:04:06.757Z,76.46
2023-04-03T19:07:10.311Z,77.85
2023-04-03T19:10:12.916Z,79.60
2023-04-03T19:13:18.832Z,78.91
2023-04-03T19:16:21.338Z,77.67
2023-04-03T19:19:23.509Z,80.42
2023-04-03T19:22:26.249Z,78.28
2023-04-03T19:25:28.618Z,79.44
2023-04-03T19:28:32.115Z,79.68
2023-04-03T19:31:34.941Z,80.21
2023-04-03T19:34:37.299Z,80.68
2023-04-03T19:37:40.973Z,78.90
2023-04-03T19:40:43.877Z,80.40
2023-04-03T19:43:50.371Z,80.69
2023-04-03T19:46:53.431Z,80.82
2023-04-03T19:49:56.402Z,81.36
2023-04-03T19:52:58.592Z,82.52
2023-04-03T19:56:01.590Z,84.50
2023-04-03T19:59:05.536Z,83.31
2023-04-03T20:02:08.152Z,81.38
2023-04-03T20:05:10.898Z,83.78
2023-04-03T20:08:14.082Z,84.69
2023-04-03T20:11:17.347Z,85.13
2023-04-03T20:14:20.703Z,85.98
2023-04-03T20:17:22.491Z,85.18
2023-04-03T20:20:25.537Z,86.09
2023-04-03T20:23:27.612Z,84.61
2023-04-03T20:26:30.575Z,85.08
2023-04-03T20:29:35.620Z,86.13
2023-04-03T20:32:38.917Z,86.57
2023-04-03T20:35:41.058Z,83.86
2023-04-03T20:38:43.474Z,85.41
2023-04-03T20:41:45.317Z,85.24
2023-04-03T20:44:49.312Z,85.63
2023-04-03T20:47:54.087Z,84.47
2023-04-03T20:50:56.154Z,84.61
2023-04-03T20:53:59.996Z,85.55
2023-04-03T20:57:01.935Z,84.83
2023-04-03T21:00:05.694Z,85.54
2023-04-03T21:03:07.321Z,85.27
2023-04-03T21:06:27.571Z,86.03
2023-04-03T21:09:47.865Z,86.18
2023-04-03T21:13:08.382Z,86.69
2023-04-03T21:16:10.167Z,85.96
2023-04-03T21:19:14.780Z,86.40
2023-04-03T21:22:16.432Z,88.07
2023-04-03T21:25:18.213Z,86.29
2023-04-03T21:28:19.778Z,87.98
2023-04-03T21:31:22.102Z,88.20
2023-04-03T21:34:26.051Z,88.09
2023-04-03T21:37:27.719Z,87.45
2023-04-03T21:40:29.251Z,89.00
2023-04-03T21:43:30.855Z,89.11
2023-04-03T21:46:32.498Z,88.22
2023-04-03T21:49:37.067Z,90.14
2023-04-03T21:52:38.707Z,90.52
2023-04-03T21:55:40.365Z,90.48
2023-04-03T21:58:42.768Z,90.07
2023-04-03T22:01:44.701Z,90.56
2023-04-03T22:04:50.443Z,90.62
2023-04-03T22:07:51.997Z,88.32
2023-04-03T22:10:59.309Z,87.82
2023-04-03T22:14:01.085Z,89.28
2023-04-03T22:17:03.142Z,89.95
2023-04-03T22:20:07.931Z,88.73
2023-04-03T22:23:09.502Z,90.35
2023-04-03T22:26:13.014Z,89.41
2023-04-03T22:29:14.667Z,91.95
2023-04-03T22:32:17.004Z,91.26
2023-04-03T22:35:20.474Z,91.87
2023-04-03T22:38:22.334Z,92.03
2023-04-03T22:41:24.399Z,91.26
2023-04-03T22:44:29.681Z,91.83
2023-04-03T22:47:33.805Z,91.63
2023-04-03T22:50:36.798Z,89.37
2023-04-03T22:53:38.365Z,90.56
2023-04-03T22:56:40.418Z,90.01
2023-04-03T22:59:42.090Z,89.43
2023-04-03T23:02:43.939Z,89.29
2023-04-03T23:05:46.953Z,88.05
2023-04-03T23:08:48.594Z,87.91
2023-04-03T23:11:50.612Z,88.78
2023-04-03T23:14:52.332Z,85.10
2023-04-03T23:17:53.876Z,86.52
2023-04-03T23:20:58.563Z,86.59
2023-04-03T23:24:00.154Z,87.07
2023-04-03T23:27:02.347Z,86.21
2023-04-03T23:30:04.342Z,85.94
2023-04-03T23:33:07.091Z,86.33
2023-04-03T23:36:11.137Z,84.84
2023-04-03T23:39:12.774Z,85.39
2023-04-03T23:42:14.608Z,85.22
2023-04-03T23:45:16.351Z,86.08
2023-04-03T23:48:18.150Z,85.00
2023-04-03T23:51:21.132Z,83.81
2023-04-03T23:54:22.791Z,85.95
2023-04-03T23:57:24.662Z,85.29
